Observation data for Olton on 01/13/2021      Previous  Date  Next       Current Mesonet Observations  Soil Data  Daily Summary Page  Observations in Plain Language
KONS 130600Z 25009KT M03/M04 A3016 RMK A01 T10331042  RH  093%=      5-min Rain = 0
KONS 130605Z 25009KT M04/M04 A3016 RMK A01 T10351044  RH  094%=      5-min Rain = 0
KONS 130610Z 25010KT M04/M05 A3016 RMK A01 T10361045  RH  094%=      5-min Rain = 0
KONS 130615Z 25009KT M04/M05 A3016 RMK A01 T10361045  RH  094%=      5-min Rain = 0
KONS 130620Z 25009KT M04/M05 A3016 RMK A01 T10381048  RH  094%=      5-min Rain = 0
KONS 130625Z 25009KT M04/M05 A3016 RMK A01 T10411050  RH  094%=      5-min Rain = 0
KONS 130630Z 25010KT M04/M05 A3016 RMK A01 T10421050  RH  094%=      5-min Rain = 0
KONS 130635Z 25010KT M04/M05 A3016 RMK A01 T10401048  RH  095%=      5-min Rain = 0
KONS 130640Z 25010KT M04/M05 A3016 RMK A01 T10391048  RH  094%=      5-min Rain = 0
KONS 130645Z 24010KT M04/M05 A3016 RMK A01 T10411051  RH  093%=      5-min Rain = 0
KONS 130650Z 24009KT M05/M06 A3016 RMK A01 T10471058  RH  092%=      5-min Rain = 0
KONS 130655Z 24009KT M05/M06 A3016 RMK A01 T10471056  RH  093%=      5-min Rain = 0
KONS 130700Z 24009KT M04/M05 A3016 RMK A01 T10441054  RH  093%=      5-min Rain = 0
KONS 130705Z 25009KT M04/M05 A3016 RMK A01 T10421053  RH  092%=      5-min Rain = 0
KONS 130710Z 25009KT M04/M05 A3016 RMK A01 T10401053  RH  091%=      5-min Rain = 0
KONS 130715Z 25009KT M04/M05 A3016 RMK A01 T10411053  RH  091%=      5-min Rain = 0
KONS 130720Z 25009KT M04/M05 A3016 RMK A01 T10401052  RH  092%=      5-min Rain = 0
KONS 130725Z 25009KT M04/M05 A3016 RMK A01 T10381051  RH  092%=      5-min Rain = 0
KONS 130730Z 26009KT M04/M05 A3016 RMK A01 T10361049  RH  091%=      5-min Rain = 0
KONS 130735Z 26009KT M03/M05 A3016 RMK A01 T10311045  RH  091%=      5-min Rain = 0
KONS 130740Z 26008KT M03/M05 A3016 RMK A01 T10281045  RH  088%=      5-min Rain = 0
KONS 130745Z 26008KT M03/M05 A3015 RMK A01 T10311049  RH  088%=      5-min Rain = 0
KONS 130750Z 26007KT M03/M05 A3015 RMK A01 T10331051  RH  088%=      5-min Rain = 0
KONS 130755Z 27008KT M04/M06 A3015 RMK A01 T10411058  RH  088%=      5-min Rain = 0
KONS 130800Z 27009KT M04/M06 A3015 RMK A01 T10421056  RH  090%=      5-min Rain = 0
KONS 130805Z 26008KT M04/M05 A3015 RMK A01 T10371049  RH  092%=      5-min Rain = 0
KONS 130810Z 26008KT M04/M05 A3015 RMK A01 T10371051  RH  090%=      5-min Rain = 0
KONS 130815Z 26009KT M04/M05 A3015 RMK A01 T10371053  RH  089%=      5-min Rain = 0
KONS 130820Z 27009KT M04/M05 A3015 RMK A01 T10361053  RH  088%=      5-min Rain = 0
KONS 130825Z 27009KT M03/M05 A3015 RMK A01 T10331051  RH  088%=      5-min Rain = 0
KONS 130830Z 27009KT M03/M05 A3014 RMK A01 T10301050  RH  087%=      5-min Rain = 0
KONS 130835Z 27008KT M03/M05 A3014 RMK A01 T10301050  RH  086%=      5-min Rain = 0
KONS 130840Z 27008KT M03/M05 A3014 RMK A01 T10311051  RH  086%=      5-min Rain = 0
KONS 130845Z 27008KT M03/M05 A3014 RMK A01 T10321052  RH  087%=      5-min Rain = 0
KONS 130850Z 27009KT M03/M05 A3014 RMK A01 T10331052  RH  087%=      5-min Rain = 0
KONS 130855Z 27009KT M04/M05 A3014 RMK A01 T10351053  RH  088%=      5-min Rain = 0
KONS 130900Z 27009KT M04/M05 A3014 RMK A01 T10351052  RH  088%=      5-min Rain = 0
KONS 130905Z 28008KT M04/M06 A3014 RMK A01 T10381055  RH  088%=      5-min Rain = 0
KONS 130910Z 27007KT M04/M06 A3013 RMK A01 T10401057  RH  088%=      5-min Rain = 0
KONS 130915Z 27008KT M04/M06 A3013 RMK A01 T10411056  RH  089%=      5-min Rain = 0
KONS 130920Z 26007KT M04/M06 A3013 RMK A01 T10401056  RH  089%=      5-min Rain = 0
KONS 130925Z 26007KT M06/M07 A3013 RMK A01 T10551074  RH  087%=      5-min Rain = 0
KONS 130930Z 25007KT M06/M08 A3012 RMK A01 T10641078  RH  090%=      5-min Rain = 0
KONS 130935Z 25009KT M06/M07 A3012 RMK A01 T10621073  RH  092%=      5-min Rain = 0
KONS 130940Z 24009KT M06/M07 A3011 RMK A01 T10591069  RH  092%=      5-min Rain = 0
KONS 130945Z 24008KT M06/M07 A3011 RMK A01 T10591071  RH  092%=      5-min Rain = 0
KONS 130950Z 24009KT M06/M07 A3011 RMK A01 T10611071  RH  092%=      5-min Rain = 0
KONS 130955Z 25009KT M06/M07 A3011 RMK A01 T10621073  RH  092%=      5-min Rain = 0
KONS 131000Z 24009KT M06/M07 A301 RMK A01 T10631073  RH  092%=      5-min Rain = 0
KONS 131005Z 24009KT M06/M07 A301 RMK A01 T10621072  RH  093%=      5-min Rain = 0
KONS 131010Z 25010KT M06/M07 A301 RMK A01 T10621072  RH  092%=      5-min Rain = 0
KONS 131015Z 25011KT M06/M07 A301 RMK A01 T10581068  RH  093%=      5-min Rain = 0
KONS 131020Z 24011KT M06/M07 A301 RMK A01 T10571069  RH  091%=      5-min Rain = 0
KONS 131025Z 24011KT M06/M07 A3009 RMK A01 T10591071  RH  091%=      5-min Rain = 0
KONS 131030Z 24010KT M05/M07 A3009 RMK A01 T10531066  RH  091%=      5-min Rain = 0
KONS 131035Z 25010KT M05/M06 A3008 RMK A01 T10471061  RH  090%=      5-min Rain = 0
KONS 131040Z 25011KT M04/M06 A3008 RMK A01 T10401055  RH  089%=      5-min Rain = 0
KONS 131045Z 25011KT M04/M05 A3008 RMK A01 T10351052  RH  088%=      5-min Rain = 0
KONS 131050Z 25011KT M03/M05 A3008 RMK A01 T10331051  RH  088%=      5-min Rain = 0
KONS 131055Z 25011KT M03/M05 A3008 RMK A01 T10321052  RH  087%=      5-min Rain = 0
KONS 131100Z 25010KT M03/M05 A3008 RMK A01 T10331053  RH  087%=      5-min Rain = 0
KONS 131105Z 25010KT M03/M05 A3008 RMK A01 T10341053  RH  087%=      5-min Rain = 0
KONS 131110Z 25010KT M03/M05 A3008 RMK A01 T10341054  RH  087%=      5-min Rain = 0
KONS 131115Z 25011KT M03/M05 A3008 RMK A01 T10331053  RH  086%=      5-min Rain = 0
KONS 131120Z 25011KT M03/M05 A3008 RMK A01 T10321052  RH  086%=      5-min Rain = 0
KONS 131125Z 25011KT M03/M05 A3008 RMK A01 T10321053  RH  086%=      5-min Rain = 0
KONS 131130Z 25011KT M03/M05 A3008 RMK A01 T10321053  RH  086%=      5-min Rain = 0
KONS 131135Z 25010KT M03/M05 A3008 RMK A01 T10331053  RH  086%=      5-min Rain = 0
KONS 131140Z 25010KT M03/M05 A3008 RMK A01 T10341054  RH  086%=      5-min Rain = 0
KONS 131145Z 24011KT M04/M05 A3007 RMK A01 T10351054  RH  086%=      5-min Rain = 0
KONS 131150Z 24011KT M03/M05 A3007 RMK A01 T10341054  RH  086%=      5-min Rain = 0
KONS 131155Z 25011KT M03/M05 A3007 RMK A01 T10341054  RH  086%=      5-min Rain = 0
KONS 131200Z 24011KT M04/M06 A3007 RMK A01 T10351056  RH  086%=      5-min Rain = 0
KONS 131205Z 24011KT M04/M06 A3007 RMK A01 T10361057  RH  086%=      5-min Rain = 0
KONS 131210Z 25010KT M04/M06 A3007 RMK A01 T10371057  RH  086%=      5-min Rain = 0
KONS 131215Z 25010KT M04/M06 A3007 RMK A01 T10391058  RH  087%=      5-min Rain = 0
KONS 131220Z 25009KT M04/M06 A3007 RMK A01 T10421060  RH  087%=      5-min Rain = 0
KONS 131225Z 25010KT M04/M06 A3006 RMK A01 T10441062  RH  088%=      5-min Rain = 0
KONS 131230Z 25009KT M05/M06 A3006 RMK A01 T10461063  RH  088%=      5-min Rain = 0
KONS 131235Z 24009KT M05/M06 A3006 RMK A01 T10481064  RH  088%=      5-min Rain = 0
KONS 131240Z 24010KT M05/M07 A3006 RMK A01 T10491065  RH  088%=      5-min Rain = 0
KONS 131245Z 24010KT M05/M07 A3006 RMK A01 T10491065  RH  089%=      5-min Rain = 0
KONS 131250Z 24010KT M05/M07 A3006 RMK A01 T10491065  RH  089%=      5-min Rain = 0
KONS 131255Z 23010KT M05/M07 A3006 RMK A01 T10501067  RH  088%=      5-min Rain = 0
KONS 131300Z 24010KT M05/M07 A3006 RMK A01 T10491066  RH  088%=      5-min Rain = 0
KONS 131305Z 24011KT M05/M07 A3006 RMK A01 T10491066  RH  088%=      5-min Rain = 0
KONS 131310Z 24012KT M05/M07 A3005 RMK A01 T10471065  RH  087%=      5-min Rain = 0
KONS 131315Z 24011KT M05/M07 A3006 RMK A01 T10481066  RH  087%=      5-min Rain = 0
KONS 131320Z 24011KT M05/M07 A3006 RMK A01 T10491066  RH  088%=      5-min Rain = 0
KONS 131325Z 24011KT M05/M07 A3006 RMK A01 T10491067  RH  088%=      5-min Rain = 0
KONS 131330Z 25010KT M05/M07 A3006 RMK A01 T10501068  RH  087%=      5-min Rain = 0
KONS 131335Z 25010KT M05/M07 A3006 RMK A01 T10511069  RH  087%=      5-min Rain = 0
KONS 131340Z 25009KT M05/M07 A3006 RMK A01 T10541071  RH  088%=      5-min Rain = 0
KONS 131345Z 25008KT M06/M07 A3006 RMK A01 T10561072  RH  088%=      5-min Rain = 0
KONS 131350Z 25008KT M06/M07 A3006 RMK A01 T10551072  RH  088%=      5-min Rain = 0
KONS 131355Z 25007KT M06/M07 A3006 RMK A01 T10551073  RH  087%=      5-min Rain = 0
KONS 131400Z 26006KT M06/M08 A3006 RMK A01 T10581076  RH  087%=      5-min Rain = 0
KONS 131405Z 25007KT M06/M08 A3006 RMK A01 T10581076  RH  087%=      5-min Rain = 0
KONS 131410Z 25008KT M06/M08 A3005 RMK A01 T10611079  RH  087%=      5-min Rain = 0
KONS 131415Z 24008KT M06/M08 A3006 RMK A01 T10621078  RH  088%=      5-min Rain = 0
KONS 131420Z 24007KT M06/M08 A3005 RMK A01 T10601075  RH  089%=      5-min Rain = 0
KONS 131425Z 24007KT M06/M08 A3005 RMK A01 T10591075  RH  089%=      5-min Rain = 0
KONS 131430Z 25008KT M06/M07 A3005 RMK A01 T10561071  RH  089%=      5-min Rain = 0
KONS 131435Z 25008KT M05/M07 A3005 RMK A01 T10531069  RH  089%=      5-min Rain = 0
KONS 131440Z 25007KT M05/M07 A3005 RMK A01 T10511067  RH  089%=      5-min Rain = 0
KONS 131445Z 24007KT M05/M07 A3005 RMK A01 T10491065  RH  089%=      5-min Rain = 0
KONS 131450Z 24007KT M05/M06 A3005 RMK A01 T10481064  RH  088%=      5-min Rain = 0
KONS 131455Z 24007KT M05/M06 A3005 RMK A01 T10461063  RH  088%=      5-min Rain = 0
KONS 131500Z 24008KT M04/M06 A3005 RMK A01 T10421060  RH  088%=      5-min Rain = 0
KONS 131505Z 24009KT M04/M06 A3005 RMK A01 T10401058  RH  088%=      5-min Rain = 0
KONS 131510Z 24009KT M04/M06 A3005 RMK A01 T10371056  RH  087%=      5-min Rain = 0
KONS 131515Z 24009KT M04/M06 A3005 RMK A01 T10351055  RH  086%=      5-min Rain = 0
KONS 131520Z 24009KT M03/M05 A3005 RMK A01 T10311053  RH  085%=      5-min Rain = 0
KONS 131525Z 24009KT M03/M05 A3005 RMK A01 T10301053  RH  084%=      5-min Rain = 0
KONS 131530Z 25009KT M03/M05 A3005 RMK A01 T10281051  RH  084%=      5-min Rain = 0
KONS 131535Z 25009KT M02/M05 A3005 RMK A01 T10231046  RH  085%=      5-min Rain = 0
KONS 131540Z 24010KT M02/M04 A3005 RMK A01 T10191044  RH  083%=      5-min Rain = 0
KONS 131545Z 25010KT M01/M04 A3005 RMK A01 T10141042  RH  082%=      5-min Rain = 0
KONS 131550Z 25011KT M01/M04 A3005 RMK A01 T10121041  RH  081%=      5-min Rain = 0
KONS 131555Z 25010KT M01/M04 A3005 RMK A01 T10091038  RH  082%=      5-min Rain = 0
KONS 131600Z 25009KT M01/M03 A3006 RMK A01 T10051032  RH  083%=      5-min Rain = 0
KONS 131605Z 24010KT M00/M03 A3005 RMK A01 T10041033  RH  081%=      5-min Rain = 0
KONS 131610Z 25010KT M00/M03 A3006 RMK A01 T10011029  RH  082%=      5-min Rain = 0
KONS 131615Z 25010KT 01/M02 A3005 RMK A01 T00071023  RH  081%=      5-min Rain = 0
KONS 131620Z 25012KT 01/M02 A3005 RMK A01 T00131023  RH  078%=      5-min Rain = 0
KONS 131625Z 25012KT 02/M03 A3005 RMK A01 T00161026  RH  074%=      5-min Rain = 0
KONS 131630Z 25012KT 02/M02 A3005 RMK A01 T00161023  RH  076%=      5-min Rain = 0
KONS 131635Z 25012KT 02/M02 A3005 RMK A01 T00181024  RH  074%=      5-min Rain = 0
KONS 131640Z 26016G21KT 03/M03 A3005 RMK A01 T00301026  RH  067%=      5-min Rain = 0
KONS 131645Z 26018KT 04/M03 A3005 RMK A01 T00401033  RH  059%=      5-min Rain = 0
KONS 131650Z 27019KT 05/M04 A3005 RMK A01 T00451037  RH  055%=      5-min Rain = 0
KONS 131655Z 27018KT 05/M04 A3005 RMK A01 T00501039  RH  053%=      5-min Rain = 0
KONS 131700Z 27017KT 05/M04 A3005 RMK A01 T00521044  RH  050%=      5-min Rain = 0
KONS 131705Z 26017G22KT 05/M04 A3005 RMK A01 T00541042  RH  050%=      5-min Rain = 0
KONS 131710Z 26018G24KT 06/M04 A3004 RMK A01 T00551044  RH  049%=      5-min Rain = 0
KONS 131715Z 26018G23KT 06/M05 A3003 RMK A01 T00581046  RH  047%=      5-min Rain = 0
KONS 131720Z 26019G25KT 06/M05 A3003 RMK A01 T00601048  RH  046%=      5-min Rain = 0
KONS 131725Z 26020G25KT 06/M05 A3003 RMK A01 T00631052  RH  044%=      5-min Rain = 0
KONS 131730Z 26017KT 07/M05 A3002 RMK A01 T00661048  RH  044%=      5-min Rain = 0
KONS 131735Z 27016G22KT 07/M04 A3002 RMK A01 T00681043  RH  045%=      5-min Rain = 0
KONS 131740Z 26017G22KT 07/M05 A3002 RMK A01 T00671047  RH  044%=      5-min Rain = 0
KONS 131745Z 26019KT 07/M05 A3002 RMK A01 T00701048  RH  043%=      5-min Rain = 0
KONS 131750Z 27018KT 07/M05 A3001 RMK A01 T00741049  RH  041%=      5-min Rain = 0
KONS 131755Z 26017KT 08/M05 A3001 RMK A01 T00781046  RH  041%=      5-min Rain = 0
KONS 131800Z 26015KT 08/M05 A3001 RMK A01 T00811045  RH  041%=      5-min Rain = 0
KONS 131805Z 26015KT 08/M04 A30 RMK A01 T00811043  RH  041%=      5-min Rain = 0
KONS 131810Z 26016KT 08/M05 A30 RMK A01 T00791045  RH  041%=      5-min Rain = 0
KONS 131815Z 26015KT 08/M04 A2999 RMK A01 T00801044  RH  041%=      5-min Rain = 0
KONS 131820Z 26014KT 08/M04 A2999 RMK A01 T00821042  RH  041%=      5-min Rain = 0
KONS 131825Z 27015KT 09/M05 A2999 RMK A01 T00861045  RH  039%=      5-min Rain = 0
KONS 131830Z 27014KT 09/M04 A2999 RMK A01 T00851042  RH  041%=      5-min Rain = 0
KONS 131835Z 27012KT 09/M04 A2998 RMK A01 T00891038  RH  041%=      5-min Rain = 0
KONS 131840Z 26011KT 10/M03 A2998 RMK A01 T00951032  RH  041%=      5-min Rain = 0
KONS 131845Z 25013KT 10/M03 A2997 RMK A01 T00951033  RH  041%=      5-min Rain = 0
KONS 131850Z 26012KT 10/M04 A2997 RMK A01 T00951039  RH  039%=      5-min Rain = 0
KONS 131855Z 26013KT 10/M04 A2997 RMK A01 T00971037  RH  039%=      5-min Rain = 0
KONS 131900Z 26011G16KT 10/M03 A2996 RMK A01 T00991034  RH  039%=      5-min Rain = 0
KONS 131905Z 26012KT 10/M03 A2996 RMK A01 T01021032  RH  039%=      5-min Rain = 0
KONS 131910Z 25013KT 10/M03 A2995 RMK A01 T01031030  RH  039%=      5-min Rain = 0
KONS 131915Z 25013KT 10/M03 A2995 RMK A01 T01041028  RH  040%=      5-min Rain = 0
KONS 131920Z 26013KT 11/M03 A2995 RMK A01 T01061028  RH  039%=      5-min Rain = 0
KONS 131925Z 26011KT 11/M03 A2994 RMK A01 T01111026  RH  039%=      5-min Rain = 0
KONS 131930Z 26011KT 11/M02 A2994 RMK A01 T01141024  RH  038%=      5-min Rain = 0
KONS 131935Z 26011KT 12/M03 A2994 RMK A01 T01171030  RH  036%=      5-min Rain = 0
KONS 131940Z 26010KT 12/M02 A2993 RMK A01 T01191024  RH  037%=      5-min Rain = 0
KONS 131945Z 25012KT 13/M02 A2992 RMK A01 T01251020  RH  037%=      5-min Rain = 0
KONS 131950Z 26013KT 13/M03 A2992 RMK A01 T01281025  RH  035%=      5-min Rain = 0
KONS 131955Z 25013KT 13/M02 A2992 RMK A01 T01271021  RH  036%=      5-min Rain = 0
KONS 132000Z 25013KT 13/M02 A2991 RMK A01 T01271018  RH  037%=      5-min Rain = 0
KONS 132005Z 26013KT 13/M02 A2991 RMK A01 T01281016  RH  037%=      5-min Rain = 0
KONS 132010Z 26014KT 13/M02 A2991 RMK A01 T01291021  RH  036%=      5-min Rain = 0
KONS 132015Z 26013KT 13/M02 A299 RMK A01 T01331017  RH  036%=      5-min Rain = 0
KONS 132020Z 26014KT 14/M02 A299 RMK A01 T01351019  RH  035%=      5-min Rain = 0
KONS 132025Z 26013KT 14/M02 A299 RMK A01 T01351019  RH  035%=      5-min Rain = 0
KONS 132030Z 25013KT 14/M02 A2989 RMK A01 T01371018  RH  034%=      5-min Rain = 0
KONS 132035Z 26014KT 14/M02 A2989 RMK A01 T01381017  RH  035%=      5-min Rain = 0
KONS 132040Z 26014KT 14/M01 A2989 RMK A01 T01391010  RH  036%=      5-min Rain = 0
KONS 132045Z 26014KT 14/M01 A2989 RMK A01 T01401012  RH  035%=      5-min Rain = 0
KONS 132050Z 26016KT 14/M01 A2989 RMK A01 T01401013  RH  035%=      5-min Rain = 0
KONS 132055Z 28014KT 14/M02 A2989 RMK A01 T01441020  RH  033%=      5-min Rain = 0
KONS 132100Z 27014KT 15/M02 A2989 RMK A01 T01461019  RH  032%=      5-min Rain = 0
KONS 132105Z 26014KT 15/M02 A2989 RMK A01 T01461020  RH  032%=      5-min Rain = 0
KONS 132110Z 26014KT 15/M02 A2989 RMK A01 T01451018  RH  033%=      5-min Rain = 0
KONS 132115Z 27013KT 15/M02 A2989 RMK A01 T01461018  RH  033%=      5-min Rain = 0
KONS 132120Z 26014KT 15/M02 A2989 RMK A01 T01491018  RH  032%=      5-min Rain = 0
KONS 132125Z 27013KT 15/M02 A2989 RMK A01 T01541017  RH  031%=      5-min Rain = 0
KONS 132130Z 28014KT 15/M03 A2989 RMK A01 T01521027  RH  029%=      5-min Rain = 0
KONS 132135Z 28012KT 15/M03 A2989 RMK A01 T01521027  RH  029%=      5-min Rain = 0
KONS 132140Z 28013KT 16/M03 A2989 RMK A01 T01551030  RH  028%=      5-min Rain = 0
KONS 132145Z 28013KT 15/M03 A2989 RMK A01 T01521028  RH  029%=      5-min Rain = 0
KONS 132150Z 28014KT 15/M03 A2988 RMK A01 T01521034  RH  028%=      5-min Rain = 0
KONS 132155Z 28012KT 15/M03 A2989 RMK A01 T01521028  RH  029%=      5-min Rain = 0
KONS 132200Z 29011KT 15/M02 A2989 RMK A01 T01541023  RH  030%=      5-min Rain = 0
KONS 132205Z 29011KT 15/M02 A2988 RMK A01 T01521021  RH  030%=      5-min Rain = 0
KONS 132210Z 29010KT 15/M02 A2988 RMK A01 T01531022  RH  030%=      5-min Rain = 0
KONS 132215Z 29010KT 15/M03 A2988 RMK A01 T01541025  RH  029%=      5-min Rain = 0
KONS 132220Z 30008KT 15/M01 A2988 RMK A01 T01541014  RH  032%=      5-min Rain = 0
KONS 132225Z 30007KT 15/M01 A2988 RMK A01 T01521010  RH  033%=      5-min Rain = 0
KONS 132230Z 29007KT 15/M01 A2988 RMK A01 T01541011  RH  033%=      5-min Rain = 0
KONS 132235Z 29008KT 16/M02 A2987 RMK A01 T01571017  RH  031%=      5-min Rain = 0
KONS 132240Z 29009KT 16/M01 A2987 RMK A01 T01581013  RH  031%=      5-min Rain = 0
KONS 132245Z 29008KT 16/M01 A2987 RMK A01 T01571011  RH  032%=      5-min Rain = 0
KONS 132250Z 28008KT 16/M02 A2987 RMK A01 T01571015  RH  031%=      5-min Rain = 0
KONS 132255Z 28006KT 15/M01 A2987 RMK A01 T01541013  RH  032%=      5-min Rain = 0
KONS 132300Z 27005KT 15/M01 A2987 RMK A01 T01541007  RH  034%=      5-min Rain = 0
KONS 132305Z 27006KT 15/M01 A2987 RMK A01 T01541009  RH  033%=      5-min Rain = 0
KONS 132310Z 27006KT 15/M01 A2987 RMK A01 T01531010  RH  033%=      5-min Rain = 0
KONS 132315Z 26006KT 15/M01 A2987 RMK A01 T01481007  RH  035%=      5-min Rain = 0
KONS 132320Z 24005KT 14/01 A2987 RMK A01 T01390013  RH  043%=      5-min Rain = 0
KONS 132325Z 24006KT 13/02 A2987 RMK A01 T01340015  RH  045%=      5-min Rain = 0
KONS 132330Z 24007KT 13/02 A2987 RMK A01 T01290015  RH  046%=      5-min Rain = 0
KONS 132335Z 24006KT 13/02 A2987 RMK A01 T01250015  RH  048%=      5-min Rain = 0
KONS 132340Z 24007KT 12/02 A2987 RMK A01 T01210015  RH  049%=      5-min Rain = 0
KONS 132345Z 25007KT 12/01 A2987 RMK A01 T01180009  RH  048%=      5-min Rain = 0
KONS 132350Z 25008KT 12/01 A2988 RMK A01 T01150007  RH  048%=      5-min Rain = 0
KONS 132355Z 25008KT 11/01 A2988 RMK A01 T01120006  RH  049%=      5-min Rain = 0
KONS 140000Z 25008KT 11/01 A2989 RMK A01 T01090007  RH  050%=      5-min Rain = 0
KONS 140005Z 26008KT 10/01 A2989 RMK A01 T01000009  RH  054%=      5-min Rain = 0
KONS 140010Z 26009KT 10/01 A2989 RMK A01 T00970011  RH  055%=      5-min Rain = 0
KONS 140015Z 26008KT 09/01 A2989 RMK A01 T00930010  RH  057%=      5-min Rain = 0
KONS 140020Z 25009KT 09/01 A2989 RMK A01 T00880010  RH  058%=      5-min Rain = 0
KONS 140025Z 25008KT 08/01 A2989 RMK A01 T00770009  RH  063%=      5-min Rain = 0
KONS 140030Z 25008KT 07/00 A2989 RMK A01 T00730004  RH  062%=      5-min Rain = 0
KONS 140035Z 24008KT 07/00 A2989 RMK A01 T00670003  RH  065%=      5-min Rain = 0
KONS 140040Z 24008KT 06/00 A2988 RMK A01 T00640004  RH  066%=      5-min Rain = 0
KONS 140045Z 24009KT 06/00 A2988 RMK A01 T00630003  RH  066%=      5-min Rain = 0
KONS 140050Z 24009KT 06/00 A2988 RMK A01 T00640004  RH  066%=      5-min Rain = 0
KONS 140055Z 24009KT 07/00 A2988 RMK A01 T00660004  RH  065%=      5-min Rain = 0
KONS 140100Z 24008KT 07/00 A2988 RMK A01 T00660004  RH  065%=      5-min Rain = 0
KONS 140105Z 23008KT 06/00 A2987 RMK A01 T00640003  RH  066%=      5-min Rain = 0
KONS 140110Z 23008KT 06/00 A2987 RMK A01 T00570000  RH  068%=      5-min Rain = 0
KONS 140115Z 23008KT 05/M00 A2988 RMK A01 T00481003  RH  070%=      5-min Rain = 0
KONS 140120Z 23007KT 04/M00 A2988 RMK A01 T00431004  RH  072%=      5-min Rain = 0
KONS 140125Z 23009KT 05/M00 A2988 RMK A01 T00461002  RH  072%=      5-min Rain = 0
KONS 140130Z 23010KT 05/00 A2988 RMK A01 T00480000  RH  072%=      5-min Rain = 0
KONS 140135Z 23010KT 05/M00 A2987 RMK A01 T00501001  RH  070%=      5-min Rain = 0
KONS 140140Z 23010KT 04/M01 A2987 RMK A01 T00421006  RH  072%=      5-min Rain = 0
KONS 140145Z 23011KT 04/M01 A2987 RMK A01 T00371008  RH  074%=      5-min Rain = 0
KONS 140150Z 24011KT 04/M01 A2987 RMK A01 T00381006  RH  074%=      5-min Rain = 0
KONS 140155Z 23011KT 04/M01 A2987 RMK A01 T00381006  RH  073%=      5-min Rain = 0
KONS 140200Z 24011KT 04/M01 A2987 RMK A01 T00391007  RH  073%=      5-min Rain = 0
KONS 140205Z 24010KT 04/M01 A2987 RMK A01 T00411008  RH  071%=      5-min Rain = 0
KONS 140210Z 23010KT 04/M01 A2987 RMK A01 T00361011  RH  072%=      5-min Rain = 0
KONS 140215Z 23010KT 03/M01 A2986 RMK A01 T00331010  RH  074%=      5-min Rain = 0
KONS 140220Z 23011KT 04/M01 A2986 RMK A01 T00361009  RH  073%=      5-min Rain = 0
KONS 140225Z 24010KT 04/M01 A2986 RMK A01 T00381008  RH  073%=      5-min Rain = 0
KONS 140230Z 24011KT 04/M01 A2986 RMK A01 T00371008  RH  073%=      5-min Rain = 0
KONS 140235Z 23012KT 04/M01 A2986 RMK A01 T00361010  RH  073%=      5-min Rain = 0
KONS 140240Z 23012KT 03/M01 A2986 RMK A01 T00321011  RH  074%=      5-min Rain = 0
KONS 140245Z 24012KT 03/M01 A2986 RMK A01 T00331012  RH  073%=      5-min Rain = 0
KONS 140250Z 24012KT 03/M01 A2986 RMK A01 T00301013  RH  074%=      5-min Rain = 0
KONS 140255Z 24011KT 03/M01 A2986 RMK A01 T00321014  RH  072%=      5-min Rain = 0
KONS 140300Z 24010KT 03/M02 A2985 RMK A01 T00301015  RH  073%=      5-min Rain = 0
KONS 140305Z 24010KT 03/M02 A2985 RMK A01 T00301015  RH  073%=      5-min Rain = 0
KONS 140310Z 24010KT 03/M02 A2985 RMK A01 T00281015  RH  074%=      5-min Rain = 0
KONS 140315Z 25010KT 03/M02 A2985 RMK A01 T00281015  RH  074%=      5-min Rain = 0
KONS 140320Z 25011KT 03/M01 A2985 RMK A01 T00291014  RH  074%=      5-min Rain = 0
KONS 140325Z 25011KT 03/M01 A2985 RMK A01 T00301014  RH  074%=      5-min Rain = 0
KONS 140330Z 26011KT 03/M01 A2985 RMK A01 T00321013  RH  073%=      5-min Rain = 0
KONS 140335Z 26011KT 04/M01 A2985 RMK A01 T00381012  RH  071%=      5-min Rain = 0
KONS 140340Z 27009KT 04/M01 A2985 RMK A01 T00371014  RH  070%=      5-min Rain = 0
KONS 140345Z 27009KT 03/M02 A2985 RMK A01 T00291017  RH  072%=      5-min Rain = 0
KONS 140350Z 27010KT 03/M02 A2985 RMK A01 T00261017  RH  074%=      5-min Rain = 0
KONS 140355Z 27008KT 03/M02 A2984 RMK A01 T00331016  RH  071%=      5-min Rain = 0
KONS 140400Z 26008KT 03/M02 A2984 RMK A01 T00331018  RH  070%=      5-min Rain = 0
KONS 140405Z 25008KT 02/M03 A2984 RMK A01 T00151026  RH  075%=      5-min Rain = 0
KONS 140410Z 25008KT 01/M02 A2984 RMK A01 T00091024  RH  079%=      5-min Rain = 0
KONS 140415Z 25008KT 01/M02 A2984 RMK A01 T00111023  RH  078%=      5-min Rain = 0
KONS 140420Z 25007KT 01/M02 A2983 RMK A01 T00071024  RH  080%=      5-min Rain = 0
KONS 140425Z 26008KT 01/M02 A2983 RMK A01 T00111020  RH  080%=      5-min Rain = 0
KONS 140430Z 26009KT 02/M02 A2983 RMK A01 T00201018  RH  077%=      5-min Rain = 0
KONS 140435Z 27009KT 03/M02 A2983 RMK A01 T00271017  RH  073%=      5-min Rain = 0
KONS 140440Z 27009KT 03/M02 A2982 RMK A01 T00311017  RH  071%=      5-min Rain = 0
KONS 140445Z 26009KT 04/M02 A2983 RMK A01 T00351016  RH  070%=      5-min Rain = 0
KONS 140450Z 25009KT 03/M02 A2983 RMK A01 T00261020  RH  072%=      5-min Rain = 0
KONS 140455Z 26010KT 03/M02 A2984 RMK A01 T00261015  RH  075%=      5-min Rain = 0
KONS 140500Z 26010KT 03/M01 A2984 RMK A01 T00331014  RH  072%=      5-min Rain = 0
KONS 140505Z 25010KT 03/M01 A2984 RMK A01 T00311013  RH  073%=      5-min Rain = 0
KONS 140510Z 26010KT 04/M01 A2984 RMK A01 T00361010  RH  073%=      5-min Rain = 0
KONS 140515Z 27009KT 04/M01 A2984 RMK A01 T00411010  RH  070%=      5-min Rain = 0
KONS 140520Z 28009KT 05/M01 A2984 RMK A01 T00461012  RH  067%=      5-min Rain = 0
KONS 140525Z 28010KT 05/M01 A2984 RMK A01 T00501013  RH  064%=      5-min Rain = 0
KONS 140530Z 28009KT 05/M01 A2983 RMK A01 T00511013  RH  064%=      5-min Rain = 0
KONS 140535Z 28009KT 05/M01 A2984 RMK A01 T00491013  RH  065%=      5-min Rain = 0
KONS 140540Z 30007KT 04/M01 A2984 RMK A01 T00441013  RH  067%=      5-min Rain = 0
KONS 140545Z 30008KT 04/M01 A2984 RMK A01 T00351013  RH  072%=      5-min Rain = 0
KONS 140550Z 30007KT 03/M01 A2983 RMK A01 T00291012  RH  075%=      5-min Rain = 0
KONS 140555Z 29006KT 03/M01 A2983 RMK A01 T00271013  RH  076%=      5-min Rain = 0

Page generated in 0.0086 seconds.